sensor_id;sensor_type;location;lat;lon;timestamp;P1;durP1;ratioP1;P2;durP2;ratioP2
54555;SDS011;57291;37.520;15.106;2023-07-20T00:02:11;26.27;;;11.10;;
54555;SDS011;57291;37.520;15.106;2023-07-20T00:04:39;22.50;;;11.23;;
54555;SDS011;57291;37.520;15.106;2023-07-20T00:07:06;27.60;;;12.43;;
54555;SDS011;57291;37.520;15.106;2023-07-20T00:09:33;27.45;;;11.52;;
54555;SDS011;57291;37.520;15.106;2023-07-20T00:12:01;29.80;;;12.07;;
54555;SDS011;57291;37.520;15.106;2023-07-20T00:14:28;32.95;;;11.55;;
54555;SDS011;57291;37.520;15.106;2023-07-20T00:16:56;23.50;;;11.88;;
54555;SDS011;57291;37.520;15.106;2023-07-20T00:19:26;28.23;;;12.00;;
54555;SDS011;57291;37.520;15.106;2023-07-20T00:21:54;28.00;;;12.48;;
54555;SDS011;57291;37.520;15.106;2023-07-20T00:24:22;24.40;;;12.10;;
54555;SDS011;57291;37.520;15.106;2023-07-20T00:26:50;26.50;;;11.65;;
54555;SDS011;57291;37.520;15.106;2023-07-20T00:29:17;32.97;;;12.88;;
54555;SDS011;57291;37.520;15.106;2023-07-20T00:31:45;27.45;;;10.90;;
54555;SDS011;57291;37.520;15.106;2023-07-20T00:34:14;24.48;;;9.88;;
54555;SDS011;57291;37.520;15.106;2023-07-20T00:36:41;24.75;;;10.48;;
54555;SDS011;57291;37.520;15.106;2023-07-20T00:39:09;28.88;;;11.85;;
54555;SDS011;57291;37.520;15.106;2023-07-20T00:41:36;21.38;;;10.73;;
54555;SDS011;57291;37.520;15.106;2023-07-20T00:44:04;31.25;;;12.05;;
54555;SDS011;57291;37.520;15.106;2023-07-20T00:46:31;37.15;;;11.90;;
54555;SDS011;57291;37.520;15.106;2023-07-20T00:49:00;32.58;;;13.18;;
54555;SDS011;57291;37.520;15.106;2023-07-20T00:51:27;29.45;;;11.77;;
54555;SDS011;57291;37.520;15.106;2023-07-20T00:53:55;29.52;;;12.75;;
54555;SDS011;57291;37.520;15.106;2023-07-20T00:56:22;30.20;;;13.27;;
54555;SDS011;57291;37.520;15.106;2023-07-20T00:58:49;31.33;;;14.35;;
54555;SDS011;57291;37.520;15.106;2023-07-20T01:01:17;28.13;;;13.75;;
54555;SDS011;57291;37.520;15.106;2023-07-20T01:03:46;33.75;;;13.50;;
54555;SDS011;57291;37.520;15.106;2023-07-20T01:14:31;27.90;;;13.20;;
54555;SDS011;57291;37.520;15.106;2023-07-20T01:16:59;25.42;;;13.30;;
54555;SDS011;57291;37.520;15.106;2023-07-20T01:19:27;35.40;;;14.10;;
54555;SDS011;57291;37.520;15.106;2023-07-20T01:21:59;27.70;;;13.55;;
54555;SDS011;57291;37.520;15.106;2023-07-20T01:24:38;33.17;;;13.38;;
54555;SDS011;57291;37.520;15.106;2023-07-20T01:32:50;34.33;;;13.18;;
54555;SDS011;57291;37.520;15.106;2023-07-20T01:35:23;30.42;;;12.57;;
54555;SDS011;57291;37.520;15.106;2023-07-20T01:40:24;24.75;;;12.07;;
54555;SDS011;57291;37.520;15.106;2023-07-20T01:42:52;32.33;;;12.75;;
54555;SDS011;57291;37.520;15.106;2023-07-20T01:45:20;34.47;;;11.63;;
54555;SDS011;57291;37.520;15.106;2023-07-20T01:47:47;32.72;;;11.48;;
54555;SDS011;57291;37.520;15.106;2023-07-20T01:50:14;33.72;;;12.25;;
54555;SDS011;57291;37.520;15.106;2023-07-20T01:52:41;31.08;;;11.15;;
54555;SDS011;57291;37.520;15.106;2023-07-20T01:55:08;30.50;;;11.10;;
54555;SDS011;57291;37.520;15.106;2023-07-20T01:57:36;25.08;;;10.82;;
54555;SDS011;57291;37.520;15.106;2023-07-20T02:00:03;24.63;;;10.70;;
54555;SDS011;57291;37.520;15.106;2023-07-20T02:02:39;28.60;;;11.32;;
54555;SDS011;57291;37.520;15.106;2023-07-20T02:05:09;32.97;;;11.63;;
54555;SDS011;57291;37.520;15.106;2023-07-20T02:07:36;29.13;;;12.05;;
54555;SDS011;57291;37.520;15.106;2023-07-20T02:10:03;26.35;;;10.70;;
54555;SDS011;57291;37.520;15.106;2023-07-20T02:12:31;27.08;;;11.25;;
54555;SDS011;57291;37.520;15.106;2023-07-20T02:14:58;25.85;;;11.68;;
54555;SDS011;57291;37.520;15.106;2023-07-20T02:17:25;23.73;;;10.77;;
54555;SDS011;57291;37.520;15.106;2023-07-20T02:19:53;27.77;;;11.20;;
54555;SDS011;57291;37.520;15.106;2023-07-20T02:22:21;26.42;;;10.40;;
54555;SDS011;57291;37.520;15.106;2023-07-20T02:24:48;31.08;;;11.40;;
54555;SDS011;57291;37.520;15.106;2023-07-20T02:27:16;33.33;;;11.98;;
54555;SDS011;57291;37.520;15.106;2023-07-20T02:29:43;25.52;;;10.05;;
54555;SDS011;57291;37.520;15.106;2023-07-20T02:32:11;23.52;;;9.15;;
54555;SDS011;57291;37.520;15.106;2023-07-20T02:34:38;25.50;;;10.10;;
54555;SDS011;57291;37.520;15.106;2023-07-20T02:37:05;22.90;;;9.68;;
54555;SDS011;57291;37.520;15.106;2023-07-20T02:39:35;23.45;;;9.65;;
54555;SDS011;57291;37.520;15.106;2023-07-20T02:42:03;27.88;;;10.32;;
54555;SDS011;57291;37.520;15.106;2023-07-20T02:44:30;25.77;;;9.32;;
54555;SDS011;57291;37.520;15.106;2023-07-20T02:46:57;29.83;;;9.70;;
54555;SDS011;57291;37.520;15.106;2023-07-20T02:49:24;19.77;;;9.55;;
54555;SDS011;57291;37.520;15.106;2023-07-20T02:51:52;25.67;;;10.18;;
54555;SDS011;57291;37.520;15.106;2023-07-20T02:54:19;25.58;;;9.75;;
54555;SDS011;57291;37.520;15.106;2023-07-20T02:56:46;22.98;;;9.60;;
54555;SDS011;57291;37.520;15.106;2023-07-20T02:59:13;23.63;;;8.65;;
54555;SDS011;57291;37.520;15.106;2023-07-20T03:01:40;23.92;;;9.52;;
54555;SDS011;57291;37.520;15.106;2023-07-20T03:04:09;28.38;;;9.40;;
54555;SDS011;57291;37.520;15.106;2023-07-20T03:06:39;27.67;;;8.40;;
54555;SDS011;57291;37.520;15.106;2023-07-20T03:09:06;23.00;;;8.70;;
54555;SDS011;57291;37.520;15.106;2023-07-20T03:11:36;17.95;;;8.07;;
54555;SDS011;57291;37.520;15.106;2023-07-20T03:14:03;33.08;;;9.27;;
54555;SDS011;57291;37.520;15.106;2023-07-20T03:16:30;26.75;;;9.27;;
54555;SDS011;57291;37.520;15.106;2023-07-20T03:19:00;24.20;;;8.85;;
54555;SDS011;57291;37.520;15.106;2023-07-20T03:21:28;24.90;;;7.95;;
54555;SDS011;57291;37.520;15.106;2023-07-20T03:23:58;25.45;;;9.23;;
54555;SDS011;57291;37.520;15.106;2023-07-20T03:26:25;27.05;;;7.65;;
54555;SDS011;57291;37.520;15.106;2023-07-20T03:28:52;23.67;;;8.95;;
54555;SDS011;57291;37.520;15.106;2023-07-20T03:31:20;25.65;;;8.98;;
54555;SDS011;57291;37.520;15.106;2023-07-20T03:33:48;21.33;;;8.80;;
54555;SDS011;57291;37.520;15.106;2023-07-20T03:36:16;20.13;;;8.35;;
54555;SDS011;57291;37.520;15.106;2023-07-20T03:38:43;25.42;;;9.68;;
54555;SDS011;57291;37.520;15.106;2023-07-20T03:41:10;25.48;;;8.55;;
54555;SDS011;57291;37.520;15.106;2023-07-20T03:43:38;24.90;;;9.68;;
54555;SDS011;57291;37.520;15.106;2023-07-20T03:46:05;36.28;;;9.75;;
54555;SDS011;57291;37.520;15.106;2023-07-20T03:48:34;23.77;;;8.57;;
54555;SDS011;57291;37.520;15.106;2023-07-20T03:51:01;20.73;;;7.50;;
54555;SDS011;57291;37.520;15.106;2023-07-20T03:53:28;26.45;;;7.72;;
54555;SDS011;57291;37.520;15.106;2023-07-20T03:55:55;20.75;;;7.30;;
54555;SDS011;57291;37.520;15.106;2023-07-20T03:58:22;24.23;;;7.95;;
54555;SDS011;57291;37.520;15.106;2023-07-20T04:00:50;20.48;;;8.30;;
54555;SDS011;57291;37.520;15.106;2023-07-20T04:03:18;19.77;;;7.55;;
54555;SDS011;57291;37.520;15.106;2023-07-20T04:05:47;22.60;;;7.20;;
54555;SDS011;57291;37.520;15.106;2023-07-20T04:08:14;25.85;;;7.65;;
54555;SDS011;57291;37.520;15.106;2023-07-20T04:10:45;22.75;;;7.22;;
54555;SDS011;57291;37.520;15.106;2023-07-20T04:13:12;19.25;;;7.20;;
54555;SDS011;57291;37.520;15.106;2023-07-20T04:15:39;28.35;;;6.88;;
54555;SDS011;57291;37.520;15.106;2023-07-20T04:18:07;23.65;;;7.38;;
54555;SDS011;57291;37.520;15.106;2023-07-20T04:20:34;16.80;;;6.72;;
54555;SDS011;57291;37.520;15.106;2023-07-20T04:23:01;23.45;;;7.35;;
54555;SDS011;57291;37.520;15.106;2023-07-20T04:25:29;22.50;;;7.72;;
54555;SDS011;57291;37.520;15.106;2023-07-20T04:28:08;20.58;;;6.88;;
54555;SDS011;57291;37.520;15.106;2023-07-20T04:30:40;28.83;;;7.00;;
54555;SDS011;57291;37.520;15.106;2023-07-20T04:33:07;19.30;;;6.85;;
54555;SDS011;57291;37.520;15.106;2023-07-20T04:35:47;19.08;;;6.90;;
54555;SDS011;57291;37.520;15.106;2023-07-20T04:41:16;18.92;;;7.38;;
54555;SDS011;57291;37.520;15.106;2023-07-20T04:43:46;24.27;;;8.50;;
54555;SDS011;57291;37.520;15.106;2023-07-20T04:46:19;20.30;;;6.95;;
54555;SDS011;57291;37.520;15.106;2023-07-20T04:48:49;18.88;;;6.40;;
54555;SDS011;57291;37.520;15.106;2023-07-20T04:51:16;15.38;;;6.97;;
54555;SDS011;57291;37.520;15.106;2023-07-20T04:53:50;24.08;;;8.45;;
54555;SDS011;57291;37.520;15.106;2023-07-20T04:56:18;19.88;;;7.70;;
54555;SDS011;57291;37.520;15.106;2023-07-20T04:58:45;21.55;;;7.50;;
54555;SDS011;57291;37.520;15.106;2023-07-20T05:01:13;24.80;;;7.28;;
54555;SDS011;57291;37.520;15.106;2023-07-20T05:03:40;21.20;;;7.28;;
54555;SDS011;57291;37.520;15.106;2023-07-20T05:06:09;22.98;;;7.22;;
54555;SDS011;57291;37.520;15.106;2023-07-20T05:08:36;26.33;;;7.70;;
54555;SDS011;57291;37.520;15.106;2023-07-20T05:11:03;28.60;;;7.55;;
54555;SDS011;57291;37.520;15.106;2023-07-20T05:13:31;27.60;;;8.35;;
54555;SDS011;57291;37.520;15.106;2023-07-20T05:15:58;26.23;;;8.35;;
54555;SDS011;57291;37.520;15.106;2023-07-20T05:18:26;26.27;;;9.40;;
54555;SDS011;57291;37.520;15.106;2023-07-20T05:20:53;18.55;;;7.43;;
54555;SDS011;57291;37.520;15.106;2023-07-20T05:23:22;18.90;;;7.57;;
54555;SDS011;57291;37.520;15.106;2023-07-20T05:26:07;23.90;;;8.15;;
54555;SDS011;57291;37.520;15.106;2023-07-20T05:28:35;24.35;;;8.68;;
54555;SDS011;57291;37.520;15.106;2023-07-20T05:31:03;26.17;;;8.38;;
54555;SDS011;57291;37.520;15.106;2023-07-20T05:33:30;30.33;;;9.73;;
54555;SDS011;57291;37.520;15.106;2023-07-20T05:35:57;20.08;;;8.05;;
54555;SDS011;57291;37.520;15.106;2023-07-20T05:38:24;27.40;;;9.32;;
54555;SDS011;57291;37.520;15.106;2023-07-20T05:40:51;26.52;;;8.73;;
54555;SDS011;57291;37.520;15.106;2023-07-20T05:43:19;23.98;;;8.95;;
54555;SDS011;57291;37.520;15.106;2023-07-20T05:45:46;22.80;;;8.75;;
54555;SDS011;57291;37.520;15.106;2023-07-20T05:48:14;23.23;;;8.65;;
54555;SDS011;57291;37.520;15.106;2023-07-20T05:50:43;27.55;;;9.70;;
54555;SDS011;57291;37.520;15.106;2023-07-20T05:53:11;22.98;;;9.05;;
54555;SDS011;57291;37.520;15.106;2023-07-20T05:55:38;34.25;;;9.32;;
54555;SDS011;57291;37.520;15.106;2023-07-20T05:58:06;26.02;;;8.68;;
54555;SDS011;57291;37.520;15.106;2023-07-20T06:00:33;24.38;;;8.98;;
54555;SDS011;57291;37.520;15.106;2023-07-20T06:03:01;30.80;;;9.43;;
54555;SDS011;57291;37.520;15.106;2023-07-20T06:05:29;35.50;;;10.45;;
54555;SDS011;57291;37.520;15.106;2023-07-20T06:07:56;30.88;;;9.70;;
54555;SDS011;57291;37.520;15.106;2023-07-20T06:10:24;33.85;;;9.38;;
54555;SDS011;57291;37.520;15.106;2023-07-20T06:12:51;26.80;;;8.85;;
54555;SDS011;57291;37.520;15.106;2023-07-20T06:17:53;27.02;;;9.27;;
54555;SDS011;57291;37.520;15.106;2023-07-20T06:20:23;38.83;;;9.82;;
54555;SDS011;57291;37.520;15.106;2023-07-20T06:22:51;33.80;;;10.40;;
54555;SDS011;57291;37.520;15.106;2023-07-20T06:25:20;26.92;;;9.68;;
54555;SDS011;57291;37.520;15.106;2023-07-20T06:27:48;38.10;;;11.05;;
54555;SDS011;57291;37.520;15.106;2023-07-20T06:30:18;46.05;;;10.73;;
54555;SDS011;57291;37.520;15.106;2023-07-20T06:32:45;29.35;;;10.25;;
54555;SDS011;57291;37.520;15.106;2023-07-20T06:35:13;44.58;;;10.48;;
54555;SDS011;57291;37.520;15.106;2023-07-20T06:37:40;31.08;;;9.50;;
54555;SDS011;57291;37.520;15.106;2023-07-20T06:40:07;33.10;;;9.85;;
54555;SDS011;57291;37.520;15.106;2023-07-20T06:42:40;40.60;;;9.52;;
54555;SDS011;57291;37.520;15.106;2023-07-20T06:45:10;32.30;;;9.25;;
54555;SDS011;57291;37.520;15.106;2023-07-20T06:47:38;34.17;;;9.13;;
54555;SDS011;57291;37.520;15.106;2023-07-20T06:50:09;28.85;;;9.18;;
54555;SDS011;57291;37.520;15.106;2023-07-20T06:52:43;33.40;;;8.63;;
54555;SDS011;57291;37.520;15.106;2023-07-20T06:55:10;36.00;;;9.13;;
54555;SDS011;57291;37.520;15.106;2023-07-20T06:57:40;35.40;;;9.50;;
54555;SDS011;57291;37.520;15.106;2023-07-20T07:00:12;29.88;;;8.90;;
54555;SDS011;57291;37.520;15.106;2023-07-20T07:02:39;29.40;;;8.05;;
54555;SDS011;57291;37.520;15.106;2023-07-20T07:05:12;36.22;;;8.80;;
54555;SDS011;57291;37.520;15.106;2023-07-20T07:07:46;27.27;;;8.43;;
54555;SDS011;57291;37.520;15.106;2023-07-20T07:10:13;30.98;;;7.82;;
54555;SDS011;57291;37.520;15.106;2023-07-20T07:12:40;33.17;;;8.00;;
54555;SDS011;57291;37.520;15.106;2023-07-20T07:15:07;30.55;;;7.03;;
54555;SDS011;57291;37.520;15.106;2023-07-20T07:17:37;30.83;;;7.30;;
54555;SDS011;57291;37.520;15.106;2023-07-20T07:20:05;30.75;;;7.22;;
54555;SDS011;57291;37.520;15.106;2023-07-20T07:22:37;36.55;;;7.10;;
54555;SDS011;57291;37.520;15.106;2023-07-20T07:25:04;32.35;;;7.53;;
54555;SDS011;57291;37.520;15.106;2023-07-20T07:27:32;22.92;;;7.03;;
54555;SDS011;57291;37.520;15.106;2023-07-20T07:29:59;33.05;;;7.20;;
54555;SDS011;57291;37.520;15.106;2023-07-20T07:32:29;30.63;;;7.90;;
54555;SDS011;57291;37.520;15.106;2023-07-20T07:34:56;22.08;;;7.05;;
54555;SDS011;57291;37.520;15.106;2023-07-20T07:37:25;33.35;;;6.80;;
54555;SDS011;57291;37.520;15.106;2023-07-20T07:39:52;21.73;;;5.68;;
54555;SDS011;57291;37.520;15.106;2023-07-20T07:42:20;27.23;;;6.45;;
54555;SDS011;57291;37.520;15.106;2023-07-20T07:44:50;27.80;;;5.93;;
54555;SDS011;57291;37.520;15.106;2023-07-20T07:47:17;22.95;;;6.80;;
54555;SDS011;57291;37.520;15.106;2023-07-20T07:52:47;19.88;;;6.95;;
54555;SDS011;57291;37.520;15.106;2023-07-20T07:55:14;29.40;;;6.65;;
54555;SDS011;57291;37.520;15.106;2023-07-20T07:57:44;27.52;;;6.00;;
54555;SDS011;57291;37.520;15.106;2023-07-20T08:00:11;26.40;;;6.18;;
54555;SDS011;57291;37.520;15.106;2023-07-20T08:02:44;25.67;;;5.93;;
54555;SDS011;57291;37.520;15.106;2023-07-20T08:05:15;22.45;;;5.97;;
54555;SDS011;57291;37.520;15.106;2023-07-20T08:07:42;20.33;;;6.03;;
54555;SDS011;57291;37.520;15.106;2023-07-20T08:10:09;29.52;;;6.03;;
54555;SDS011;57291;37.520;15.106;2023-07-20T08:12:37;28.55;;;5.88;;
54555;SDS011;57291;37.520;15.106;2023-07-20T08:15:04;23.80;;;6.00;;
54555;SDS011;57291;37.520;15.106;2023-07-20T08:17:31;23.58;;;6.07;;
54555;SDS011;57291;37.520;15.106;2023-07-20T08:19:59;20.73;;;5.88;;
54555;SDS011;57291;37.520;15.106;2023-07-20T08:22:26;20.65;;;5.22;;
54555;SDS011;57291;37.520;15.106;2023-07-20T08:24:54;18.50;;;5.30;;
54555;SDS011;57291;37.520;15.106;2023-07-20T08:27:21;27.75;;;5.70;;
54555;SDS011;57291;37.520;15.106;2023-07-20T08:29:48;19.50;;;5.50;;
54555;SDS011;57291;37.520;15.106;2023-07-20T08:32:16;21.17;;;5.68;;
54555;SDS011;57291;37.520;15.106;2023-07-20T08:34:43;19.10;;;6.28;;
54555;SDS011;57291;37.520;15.106;2023-07-20T08:37:10;19.38;;;5.22;;
54555;SDS011;57291;37.520;15.106;2023-07-20T08:39:37;21.05;;;6.00;;
54555;SDS011;57291;37.520;15.106;2023-07-20T08:42:05;15.73;;;5.30;;
54555;SDS011;57291;37.520;15.106;2023-07-20T08:44:33;22.38;;;4.80;;
54555;SDS011;57291;37.520;15.106;2023-07-20T08:47:01;15.93;;;5.03;;
54555;SDS011;57291;37.520;15.106;2023-07-20T08:49:31;25.45;;;5.53;;
54555;SDS011;57291;37.520;15.106;2023-07-20T08:51:59;17.50;;;5.13;;
54555;SDS011;57291;37.520;15.106;2023-07-20T08:54:27;18.17;;;4.95;;
54555;SDS011;57291;37.520;15.106;2023-07-20T08:57:03;18.77;;;4.80;;
54555;SDS011;57291;37.520;15.106;2023-07-20T08:59:34;23.50;;;5.43;;
54555;SDS011;57291;37.520;15.106;2023-07-20T09:02:03;19.80;;;5.30;;
54555;SDS011;57291;37.520;15.106;2023-07-20T09:04:32;25.13;;;5.80;;
54555;SDS011;57291;37.520;15.106;2023-07-20T09:06:59;23.40;;;5.72;;
54555;SDS011;57291;37.520;15.106;2023-07-20T09:09:26;27.02;;;5.82;;
54555;SDS011;57291;37.520;15.106;2023-07-20T09:11:54;26.63;;;5.40;;
54555;SDS011;57291;37.520;15.106;2023-07-20T09:14:21;22.42;;;5.47;;
54555;SDS011;57291;37.520;15.106;2023-07-20T09:16:55;26.73;;;5.03;;
54555;SDS011;57291;37.520;15.106;2023-07-20T09:19:23;18.33;;;4.70;;
54555;SDS011;57291;37.520;15.106;2023-07-20T09:21:50;26.23;;;6.00;;
54555;SDS011;57291;37.520;15.106;2023-07-20T09:24:18;23.23;;;5.65;;
54555;SDS011;57291;37.520;15.106;2023-07-20T09:26:47;27.67;;;5.18;;
54555;SDS011;57291;37.520;15.106;2023-07-20T09:29:17;19.67;;;5.18;;
54555;SDS011;57291;37.520;15.106;2023-07-20T09:32:03;19.63;;;5.30;;
54555;SDS011;57291;37.520;15.106;2023-07-20T09:34:31;21.20;;;5.00;;
54555;SDS011;57291;37.520;15.106;2023-07-20T09:37:02;18.25;;;4.82;;
54555;SDS011;57291;37.520;15.106;2023-07-20T09:39:30;21.00;;;5.13;;
54555;SDS011;57291;37.520;15.106;2023-07-20T09:42:01;26.80;;;5.00;;
54555;SDS011;57291;37.520;15.106;2023-07-20T09:44:31;34.65;;;6.00;;
54555;SDS011;57291;37.520;15.106;2023-07-20T09:47:02;26.88;;;5.65;;
54555;SDS011;57291;37.520;15.106;2023-07-20T09:49:31;19.85;;;4.75;;
54555;SDS011;57291;37.520;15.106;2023-07-20T09:52:19;20.05;;;5.45;;
54555;SDS011;57291;37.520;15.106;2023-07-20T09:54:50;21.55;;;5.28;;
54555;SDS011;57291;37.520;15.106;2023-07-20T09:57:18;18.50;;;5.32;;
54555;SDS011;57291;37.520;15.106;2023-07-20T09:59:45;22.95;;;5.68;;
54555;SDS011;57291;37.520;15.106;2023-07-20T10:02:19;20.58;;;5.15;;
54555;SDS011;57291;37.520;15.106;2023-07-20T10:04:52;21.25;;;5.25;;
54555;SDS011;57291;37.520;15.106;2023-07-20T10:07:21;18.75;;;5.45;;
54555;SDS011;57291;37.520;15.106;2023-07-20T10:09:52;24.98;;;5.65;;
54555;SDS011;57291;37.520;15.106;2023-07-20T10:12:22;19.27;;;5.45;;
54555;SDS011;57291;37.520;15.106;2023-07-20T10:14:52;25.20;;;5.97;;
54555;SDS011;57291;37.520;15.106;2023-07-20T10:20:27;21.23;;;5.70;;
54555;SDS011;57291;37.520;15.106;2023-07-20T10:22:56;24.77;;;5.70;;
54555;SDS011;57291;37.520;15.106;2023-07-20T10:25:23;21.55;;;5.40;;
54555;SDS011;57291;37.520;15.106;2023-07-20T10:27:51;23.40;;;5.57;;
54555;SDS011;57291;37.520;15.106;2023-07-20T10:30:18;28.02;;;5.80;;
54555;SDS011;57291;37.520;15.106;2023-07-20T10:32:51;25.20;;;6.50;;
54555;SDS011;57291;37.520;15.106;2023-07-20T10:35:19;22.02;;;5.90;;
54555;SDS011;57291;37.520;15.106;2023-07-20T10:37:53;18.33;;;6.60;;
54555;SDS011;57291;37.520;15.106;2023-07-20T10:40:31;25.30;;;5.93;;
54555;SDS011;57291;37.520;15.106;2023-07-20T10:43:01;22.42;;;6.05;;
54555;SDS011;57291;37.520;15.106;2023-07-20T10:45:33;32.72;;;6.88;;
54555;SDS011;57291;37.520;15.106;2023-07-20T10:48:05;20.77;;;5.88;;
54555;SDS011;57291;37.520;15.106;2023-07-20T10:50:33;19.95;;;6.75;;
54555;SDS011;57291;37.520;15.106;2023-07-20T10:53:06;24.42;;;6.05;;
54555;SDS011;57291;37.520;15.106;2023-07-20T10:55:38;15.30;;;6.03;;
54555;SDS011;57291;37.520;15.106;2023-07-20T10:58:09;23.17;;;6.00;;
54555;SDS011;57291;37.520;15.106;2023-07-20T11:00:54;22.15;;;5.70;;
54555;SDS011;57291;37.520;15.106;2023-07-20T11:03:30;27.10;;;6.10;;
54555;SDS011;57291;37.520;15.106;2023-07-20T11:06:49;28.25;;;5.90;;
54555;SDS011;57291;37.520;15.106;2023-07-20T11:14:20;21.20;;;5.45;;
54555;SDS011;57291;37.520;15.106;2023-07-20T11:16:49;22.83;;;6.07;;
54555;SDS011;57291;37.520;15.106;2023-07-20T11:19:19;18.30;;;5.78;;
54555;SDS011;57291;37.520;15.106;2023-07-20T11:21:54;22.23;;;5.72;;
54555;SDS011;57291;37.520;15.106;2023-07-20T11:24:30;23.58;;;5.63;;
54555;SDS011;57291;37.520;15.106;2023-07-20T11:26:58;19.52;;;5.95;;
54555;SDS011;57291;37.520;15.106;2023-07-20T11:29:27;18.75;;;5.85;;
54555;SDS011;57291;37.520;15.106;2023-07-20T11:31:59;20.52;;;5.63;;
54555;SDS011;57291;37.520;15.106;2023-07-20T11:34:29;23.55;;;6.22;;
54555;SDS011;57291;37.520;15.106;2023-07-20T11:36:58;19.73;;;5.43;;
54555;SDS011;57291;37.520;15.106;2023-07-20T11:39:29;22.20;;;5.72;;
54555;SDS011;57291;37.520;15.106;2023-07-20T11:41:56;18.85;;;5.20;;
54555;SDS011;57291;37.520;15.106;2023-07-20T11:44:28;20.73;;;5.57;;
54555;SDS011;57291;37.520;15.106;2023-07-20T11:47:03;26.30;;;4.97;;
54555;SDS011;57291;37.520;15.106;2023-07-20T11:49:42;19.38;;;5.55;;
54555;SDS011;57291;37.520;15.106;2023-07-20T11:52:10;14.90;;;5.15;;
54555;SDS011;57291;37.520;15.106;2023-07-20T11:54:40;19.80;;;5.32;;
54555;SDS011;57291;37.520;15.106;2023-07-20T11:57:17;18.60;;;5.25;;
54555;SDS011;57291;37.520;15.106;2023-07-20T12:00:00;23.23;;;5.82;;
54555;SDS011;57291;37.520;15.106;2023-07-20T12:02:32;16.92;;;5.30;;
54555;SDS011;57291;37.520;15.106;2023-07-20T12:04:59;17.75;;;5.53;;
54555;SDS011;57291;37.520;15.106;2023-07-20T12:07:27;18.38;;;5.35;;
54555;SDS011;57291;37.520;15.106;2023-07-20T12:10:08;20.95;;;6.13;;
54555;SDS011;57291;37.520;15.106;2023-07-20T12:12:38;28.70;;;5.45;;
54555;SDS011;57291;37.520;15.106;2023-07-20T12:15:22;24.52;;;5.65;;
54555;SDS011;57291;37.520;15.106;2023-07-20T12:17:51;17.37;;;4.97;;
54555;SDS011;57291;37.520;15.106;2023-07-20T12:22:59;18.13;;;5.32;;
54555;SDS011;57291;37.520;15.106;2023-07-20T12:30:44;18.40;;;5.15;;
54555;SDS011;57291;37.520;15.106;2023-07-20T12:33:12;19.23;;;5.32;;
54555;SDS011;57291;37.520;15.106;2023-07-20T12:35:44;15.88;;;5.43;;
54555;SDS011;57291;37.520;15.106;2023-07-20T12:38:28;34.20;;;5.72;;
54555;SDS011;57291;37.520;15.106;2023-07-20T12:40:57;23.25;;;6.55;;
54555;SDS011;57291;37.520;15.106;2023-07-20T12:43:27;21.75;;;5.13;;
54555;SDS011;57291;37.520;15.106;2023-07-20T12:45:55;21.50;;;5.80;;
54555;SDS011;57291;37.520;15.106;2023-07-20T12:48:23;20.60;;;5.82;;
54555;SDS011;57291;37.520;15.106;2023-07-20T12:50:50;20.35;;;5.72;;
54555;SDS011;57291;37.520;15.106;2023-07-20T12:53:17;22.20;;;5.70;;
54555;SDS011;57291;37.520;15.106;2023-07-20T12:55:44;22.15;;;5.28;;
54555;SDS011;57291;37.520;15.106;2023-07-20T12:58:11;25.20;;;5.93;;
54555;SDS011;57291;37.520;15.106;2023-07-20T13:00:40;23.42;;;5.63;;
54555;SDS011;57291;37.520;15.106;2023-07-20T13:03:07;24.15;;;6.35;;
54555;SDS011;57291;37.520;15.106;2023-07-20T13:05:36;25.63;;;6.38;;
54555;SDS011;57291;37.520;15.106;2023-07-20T13:08:06;16.60;;;5.47;;
54555;SDS011;57291;37.520;15.106;2023-07-20T13:10:36;17.55;;;5.05;;
54555;SDS011;57291;37.520;15.106;2023-07-20T13:13:05;28.70;;;5.78;;
54555;SDS011;57291;37.520;15.106;2023-07-20T13:15:39;23.20;;;5.47;;
54555;SDS011;57291;37.520;15.106;2023-07-20T13:18:09;16.95;;;4.75;;
54555;SDS011;57291;37.520;15.106;2023-07-20T13:20:36;24.42;;;5.40;;
54555;SDS011;57291;37.520;15.106;2023-07-20T13:23:04;19.80;;;6.03;;
54555;SDS011;57291;37.520;15.106;2023-07-20T13:25:32;26.50;;;5.60;;
54555;SDS011;57291;37.520;15.106;2023-07-20T13:27:59;22.15;;;5.50;;
54555;SDS011;57291;37.520;15.106;2023-07-20T13:30:26;16.27;;;5.88;;
54555;SDS011;57291;37.520;15.106;2023-07-20T13:32:53;17.60;;;4.70;;
54555;SDS011;57291;37.520;15.106;2023-07-20T13:35:21;19.33;;;5.28;;
54555;SDS011;57291;37.520;15.106;2023-07-20T13:37:48;21.95;;;5.78;;
54555;SDS011;57291;37.520;15.106;2023-07-20T13:40:16;23.65;;;5.45;;
54555;SDS011;57291;37.520;15.106;2023-07-20T13:42:45;16.35;;;5.78;;
54555;SDS011;57291;37.520;15.106;2023-07-20T13:45:13;22.85;;;5.60;;
54555;SDS011;57291;37.520;15.106;2023-07-20T13:47:41;19.73;;;5.30;;
54555;SDS011;57291;37.520;15.106;2023-07-20T13:50:12;21.75;;;5.43;;
54555;SDS011;57291;37.520;15.106;2023-07-20T13:52:43;20.70;;;5.10;;
54555;SDS011;57291;37.520;15.106;2023-07-20T13:55:10;19.10;;;5.90;;
54555;SDS011;57291;37.520;15.106;2023-07-20T13:57:38;20.83;;;5.72;;
54555;SDS011;57291;37.520;15.106;2023-07-20T14:00:05;21.50;;;5.68;;
54555;SDS011;57291;37.520;15.106;2023-07-20T14:02:40;16.58;;;5.78;;
54555;SDS011;57291;37.520;15.106;2023-07-20T14:05:10;23.48;;;6.22;;
54555;SDS011;57291;37.520;15.106;2023-07-20T14:07:40;23.25;;;6.07;;
54555;SDS011;57291;37.520;15.106;2023-07-20T14:10:07;16.83;;;5.57;;
54555;SDS011;57291;37.520;15.106;2023-07-20T14:12:38;21.73;;;5.90;;
54555;SDS011;57291;37.520;15.106;2023-07-20T14:15:05;16.52;;;5.00;;
54555;SDS011;57291;37.520;15.106;2023-07-20T14:17:33;27.80;;;5.35;;
54555;SDS011;57291;37.520;15.106;2023-07-20T14:20:04;20.65;;;5.80;;
54555;SDS011;57291;37.520;15.106;2023-07-20T14:22:48;23.52;;;5.07;;
54555;SDS011;57291;37.520;15.106;2023-07-20T14:25:17;22.52;;;5.75;;
54555;SDS011;57291;37.520;15.106;2023-07-20T14:27:46;25.27;;;5.82;;
54555;SDS011;57291;37.520;15.106;2023-07-20T14:30:13;24.98;;;6.20;;
54555;SDS011;57291;37.520;15.106;2023-07-20T14:32:41;21.33;;;5.57;;
54555;SDS011;57291;37.520;15.106;2023-07-20T14:35:08;22.73;;;6.45;;
54555;SDS011;57291;37.520;15.106;2023-07-20T14:37:36;24.27;;;5.82;;
54555;SDS011;57291;37.520;15.106;2023-07-20T14:40:04;19.58;;;4.82;;
54555;SDS011;57291;37.520;15.106;2023-07-20T14:42:34;21.27;;;5.13;;
54555;SDS011;57291;37.520;15.106;2023-07-20T14:45:01;27.83;;;7.57;;
54555;SDS011;57291;37.520;15.106;2023-07-20T14:47:29;18.55;;;5.35;;
54555;SDS011;57291;37.520;15.106;2023-07-20T14:49:59;29.15;;;6.13;;
54555;SDS011;57291;37.520;15.106;2023-07-20T14:52:27;23.85;;;5.20;;
54555;SDS011;57291;37.520;15.106;2023-07-20T14:54:55;19.50;;;4.93;;
54555;SDS011;57291;37.520;15.106;2023-07-20T14:57:23;21.20;;;5.75;;
54555;SDS011;57291;37.520;15.106;2023-07-20T15:00:07;23.33;;;5.82;;
54555;SDS011;57291;37.520;15.106;2023-07-20T15:02:38;20.80;;;5.25;;
54555;SDS011;57291;37.520;15.106;2023-07-20T15:05:07;17.35;;;4.97;;
54555;SDS011;57291;37.520;15.106;2023-07-20T15:07:36;20.80;;;5.47;;
54555;SDS011;57291;37.520;15.106;2023-07-20T15:10:05;25.60;;;5.70;;
54555;SDS011;57291;37.520;15.106;2023-07-20T15:15:07;21.35;;;5.60;;